createdAt,value
2022-09-28T03:20:30.952Z,100.00
2022-09-28T03:23:41.302Z,100.00
2022-09-28T03:26:50.987Z,100.00
2022-09-28T03:30:00.774Z,100.00
2022-09-28T03:33:10.456Z,100.00
2022-09-28T03:36:22.659Z,100.00
2022-09-28T03:39:32.340Z,100.00
2022-09-28T03:42:43.886Z,100.00
2022-09-28T03:45:54.920Z,100.00
2022-09-28T03:49:05.004Z,100.00
2022-09-28T03:52:16.902Z,100.00
2022-09-28T03:55:27.255Z,100.00
2022-09-28T03:58:36.852Z,100.00
2022-09-28T04:01:46.601Z,100.00
2022-09-28T04:04:56.991Z,100.00
2022-09-28T04:08:07.838Z,100.00
2022-09-28T04:11:17.834Z,100.00
2022-09-28T04:14:28.291Z,100.00
2022-09-28T04:17:40.267Z,100.00
2022-09-28T04:21:03.866Z,100.00
2022-09-28T04:24:17.764Z,100.00
2022-09-28T04:27:38.488Z,100.00
2022-09-28T04:30:48.408Z,100.00
2022-09-28T04:33:59.034Z,100.00
2022-09-28T04:37:08.673Z,100.00
2022-09-28T04:40:19.668Z,100.00
2022-09-28T04:43:31.074Z,100.00
2022-09-28T04:46:40.888Z,100.00
2022-09-28T04:50:10.593Z,100.00
2022-09-28T04:53:40.262Z,100.00
2022-09-28T04:56:52.974Z,100.00
2022-09-28T05:00:03.077Z,100.00
2022-09-28T07:05:26.728Z,100.00
2022-09-28T07:08:56.562Z,100.00
2022-09-28T07:12:27.899Z,100.00
2022-09-28T07:15:44.437Z,100.00
2022-09-28T07:18:57.310Z,100.00
2022-09-28T07:22:08.202Z,100.00
2022-09-28T07:25:21.672Z,100.00
2022-09-28T07:28:45.910Z,100.00
2022-09-28T07:32:12.266Z,100.00
2022-09-28T07:35:42.133Z,100.00
2022-09-28T07:38:53.622Z,100.00
2022-09-28T07:42:03.405Z,100.00
2022-09-28T07:45:15.569Z,100.00
2022-09-28T07:48:26.987Z,100.00
2022-09-28T07:51:46.766Z,100.00
2022-09-28T07:55:08.632Z,100.00
2022-09-28T07:58:39.481Z,100.00
2022-09-28T08:02:10.162Z,96.93
2022-09-28T08:05:19.878Z,93.93
2022-09-28T08:08:31.657Z,88.87
2022-09-28T08:11:43.847Z,88.72
2022-09-28T08:15:12.028Z,87.91
2022-09-28T08:18:30.610Z,87.10
2022-09-28T08:21:45.361Z,81.25
2022-09-28T08:24:55.455Z,80.38
2022-09-28T08:28:07.622Z,76.26
2022-09-28T08:31:23.553Z,78.46
2022-09-28T08:34:45.110Z,78.22
2022-09-28T08:38:06.401Z,78.87
2022-09-28T08:41:47.058Z,81.53
2022-09-28T08:45:23.259Z,82.78
2022-09-28T08:49:13.360Z,84.78
2022-09-28T08:52:49.145Z,86.29
2022-09-28T08:56:28.466Z,85.82
2022-09-28T08:59:47.798Z,85.42
2022-09-28T09:03:07.183Z,81.77
2022-09-28T09:06:27.154Z,79.81
2022-09-28T09:09:53.420Z,77.38
2022-09-28T09:13:19.313Z,76.21
2022-09-28T09:16:44.299Z,73.92
2022-09-28T09:20:20.366Z,74.44
2022-09-28T09:23:39.085Z,75.22
2022-09-28T09:27:02.556Z,68.46
2022-09-28T09:30:18.662Z,67.72
2022-09-28T09:33:46.265Z,66.09
2022-09-28T09:37:29.162Z,64.88
2022-09-28T09:41:06.586Z,63.57
2022-09-28T09:44:52.971Z,62.89
2022-09-28T09:48:20.602Z,64.14
2022-09-28T09:51:41.864Z,62.40
2022-09-28T09:54:57.041Z,60.49
2022-09-28T09:58:23.668Z,55.89
2022-09-28T10:01:42.616Z,55.08
2022-09-28T10:05:19.409Z,57.47
2022-09-28T10:08:35.123Z,60.29
2022-09-28T10:11:50.093Z,61.68
2022-09-28T10:14:59.915Z,66.24
2022-09-28T10:18:14.051Z,67.88
2022-09-28T10:21:37.584Z,67.69
2022-09-28T10:25:00.669Z,68.60
2022-09-28T10:28:20.064Z,70.15
2022-09-28T10:31:41.696Z,68.55
2022-09-28T10:35:15.682Z,71.86
2022-09-28T10:38:27.160Z,71.08
2022-09-28T10:41:50.778Z,71.56
2022-09-28T10:45:22.147Z,70.24
2022-09-28T10:48:46.723Z,68.50
2022-09-28T10:51:57.202Z,71.95
2022-09-28T10:55:27.826Z,69.28
2022-09-28T10:58:40.465Z,70.78
2022-09-28T11:01:57.753Z,71.89
2022-09-28T11:05:08.634Z,70.02
2022-09-28T11:08:27.985Z,65.35
2022-09-28T11:11:41.540Z,63.00
2022-09-28T11:14:57.433Z,63.56
2022-09-28T11:18:26.269Z,61.08
2022-09-28T11:21:43.453Z,58.26
2022-09-28T11:25:14.371Z,57.66
2022-09-28T11:28:29.992Z,57.77
2022-09-28T11:31:39.779Z,59.23
2022-09-28T11:34:59.453Z,59.96
2022-09-28T11:38:23.416Z,61.22
2022-09-28T11:41:58.926Z,61.33
2022-09-28T11:45:30.382Z,61.27
2022-09-28T11:48:45.230Z,64.88
2022-09-28T11:52:02.118Z,64.33
2022-09-28T11:55:20.015Z,62.68
2022-09-28T11:58:34.865Z,60.79
2022-09-28T12:01:49.697Z,59.89
2022-09-28T12:05:20.851Z,59.56
2022-09-28T12:08:38.230Z,58.85
2022-09-28T12:12:20.690Z,61.44
2022-09-28T12:16:07.443Z,61.36
2022-09-28T12:19:17.750Z,63.08
2022-09-28T12:22:33.602Z,63.17
2022-09-28T12:25:48.975Z,63.81
2022-09-28T12:29:02.776Z,64.71
2022-09-28T12:32:23.151Z,66.55
2022-09-28T12:35:42.082Z,66.03
2022-09-28T12:39:18.996Z,65.14
2022-09-28T12:42:47.155Z,65.95
2022-09-28T12:46:12.919Z,66.37
2022-09-28T12:50:33.352Z,65.06
2022-09-28T12:53:25.761Z,66.38
2022-09-28T12:56:43.127Z,64.22
2022-09-28T13:00:04.292Z,64.45
2022-09-28T13:03:32.038Z,64.93
2022-09-28T13:06:51.480Z,63.43
2022-09-28T13:10:13.935Z,62.40
2022-09-28T13:13:39.051Z,61.94
2022-09-28T13:17:00.634Z,59.69
2022-09-28T13:20:23.964Z,56.43
2022-09-28T13:23:37.169Z,55.45
2022-09-28T13:26:48.829Z,54.71
2022-09-28T13:30:01.798Z,53.98
2022-09-28T13:33:25.739Z,53.96
2022-09-28T13:36:43.478Z,53.87
2022-09-28T13:39:58.836Z,54.99
2022-09-28T13:43:19.895Z,57.64
2022-09-28T13:46:37.015Z,56.25
2022-09-28T13:50:03.131Z,58.43
2022-09-28T13:53:24.009Z,55.28
2022-09-28T13:56:38.591Z,58.86
2022-09-28T13:59:59.664Z,57.03
2022-09-28T14:03:25.135Z,58.78
2022-09-28T14:06:35.993Z,59.22
2022-09-28T14:09:49.844Z,61.25
2022-09-28T14:12:59.656Z,61.49
2022-09-28T14:16:21.789Z,61.99
2022-09-28T14:19:34.687Z,62.40
2022-09-28T14:23:00.847Z,61.66
2022-09-28T14:26:29.905Z,59.84
2022-09-28T14:29:41.250Z,60.01
2022-09-28T14:32:56.117Z,60.00
2022-09-28T14:36:08.248Z,59.36
2022-09-28T14:39:34.485Z,60.35
2022-09-28T14:43:16.808Z,60.03
2022-09-28T14:46:36.691Z,61.33
2022-09-28T14:49:50.529Z,61.66
2022-09-28T14:53:06.550Z,60.03
2022-09-28T14:56:19.223Z,59.77
2022-09-28T14:59:34.469Z,61.81
2022-09-28T15:02:49.934Z,62.49
2022-09-28T15:05:59.635Z,62.90
2022-09-28T15:09:27.651Z,62.63
2022-09-28T15:12:44.436Z,64.66
2022-09-28T15:16:00.340Z,62.73
2022-09-28T15:19:24.517Z,60.38
2022-09-28T15:22:34.677Z,59.87
2022-09-28T15:25:53.013Z,60.69
2022-09-28T15:29:04.055Z,61.37
2022-09-28T15:32:25.224Z,61.15
2022-09-28T15:35:35.593Z,60.57
2022-09-28T15:38:52.370Z,60.55
2022-09-28T15:42:02.496Z,61.32
2022-09-28T15:45:26.678Z,62.12
2022-09-28T15:48:48.462Z,62.87
2022-09-28T15:52:02.914Z,63.36
2022-09-28T15:55:20.189Z,63.43
2022-09-28T15:58:30.452Z,64.14
2022-09-28T16:01:43.599Z,65.44
2022-09-28T16:04:55.221Z,66.58
2022-09-28T16:08:06.544Z,65.42
2022-09-28T16:11:21.161Z,66.20
2022-09-28T16:14:32.180Z,67.30
2022-09-28T16:17:43.776Z,68.58
2022-09-28T16:20:56.098Z,70.30
2022-09-28T16:24:07.371Z,73.42
2022-09-28T16:27:27.183Z,73.56
2022-09-28T16:30:37.019Z,74.47
2022-09-28T16:33:55.141Z,75.83
2022-09-28T16:37:31.512Z,77.16
2022-09-28T16:40:42.943Z,78.44
2022-09-28T16:43:59.047Z,79.94
2022-09-28T16:54:12.131Z,83.03
2022-09-28T16:57:25.113Z,83.15
2022-09-28T17:00:35.046Z,84.68
2022-09-28T17:03:46.988Z,85.62
2022-09-28T17:06:58.283Z,86.18
2022-09-28T17:10:17.709Z,86.01
2022-09-28T17:13:31.761Z,87.72
2022-09-28T17:17:06.477Z,88.59
2022-09-28T17:20:22.458Z,89.50
2022-09-28T17:23:32.826Z,90.01
2022-09-28T17:26:45.929Z,90.30
2022-09-28T17:29:56.042Z,90.22
2022-09-28T17:33:06.093Z,90.91
2022-09-28T17:36:18.151Z,91.17
2022-09-28T17:39:28.340Z,91.19
2022-09-28T17:42:39.425Z,92.46
2022-09-28T17:45:50.690Z,92.66
2022-09-28T17:49:02.541Z,93.02
2022-09-28T17:52:13.079Z,93.04
2022-09-28T17:55:24.942Z,94.16
2022-09-28T17:58:36.204Z,94.44
2022-09-28T18:01:46.221Z,94.26
2022-09-28T18:04:56.284Z,94.27
2022-09-28T18:08:06.299Z,95.17
2022-09-28T18:11:17.397Z,96.08
2022-09-28T18:14:29.020Z,96.86
2022-09-28T18:17:40.302Z,97.31
2022-09-28T18:20:50.186Z,98.09
2022-09-28T18:23:59.993Z,98.56
2022-09-28T18:27:09.985Z,99.39
2022-09-28T18:30:21.278Z,99.44
2022-09-28T18:33:31.153Z,99.56
2022-09-28T18:36:41.095Z,100.00
2022-09-28T18:39:51.060Z,100.00
2022-09-28T18:43:01.157Z,100.00
2022-09-28T18:46:12.894Z,100.00
2022-09-28T18:49:23.633Z,100.00
2022-09-28T18:52:36.034Z,100.00
2022-09-28T18:55:45.858Z,100.00
2022-09-28T18:58:57.150Z,100.00
2022-09-28T19:02:08.722Z,100.00
2022-09-28T19:05:19.111Z,100.00
2022-09-28T19:08:29.087Z,100.00
2022-09-28T19:11:38.901Z,100.00
2022-09-28T19:14:48.688Z,100.00
2022-09-28T19:17:59.808Z,100.00
2022-09-28T19:21:11.422Z,100.00
2022-09-28T19:24:21.482Z,100.00
2022-09-28T19:27:31.542Z,100.00
2022-09-28T19:30:42.125Z,100.00
2022-09-28T19:33:53.460Z,100.00
2022-09-28T19:37:03.843Z,100.00
2022-09-28T19:40:13.721Z,100.00
